createdAt,value
2018-01-23T00:00:07.045Z,8.93
2018-01-23T00:02:34.504Z,8.17
2018-01-23T00:05:02.042Z,8.50
2018-01-23T00:07:32.508Z,8.80
2018-01-23T00:10:00.051Z,8.90
2018-01-23T00:12:27.567Z,9.50
2018-01-23T00:14:55.107Z,9.13
2018-01-23T00:17:22.603Z,9.53
2018-01-23T00:19:50.108Z,11.50
2018-01-23T00:22:17.574Z,15.00
2018-01-23T00:24:45.070Z,11.43
2018-01-23T00:27:12.550Z,16.13
2018-01-23T00:29:40.046Z,14.17
2018-01-23T00:32:12.473Z,15.20
2018-01-23T00:34:40.896Z,14.07
2018-01-23T00:37:08.343Z,15.17
2018-01-23T00:39:35.824Z,13.53
2018-01-23T00:42:03.294Z,17.17
2018-01-23T00:44:30.781Z,15.00
2018-01-23T00:46:58.303Z,14.97
2018-01-23T00:49:25.755Z,21.90
2018-01-23T00:51:53.239Z,20.47
2018-01-23T00:54:20.697Z,20.57
2018-01-23T00:56:48.208Z,18.77
2018-01-23T00:59:16.060Z,24.20
2018-01-23T01:01:43.636Z,20.80
2018-01-23T01:04:11.108Z,25.13
2018-01-23T01:06:38.551Z,23.00
2018-01-23T01:09:06.023Z,24.23
2018-01-23T01:11:33.501Z,25.40
2018-01-23T01:14:00.962Z,25.73
2018-01-23T01:16:28.446Z,27.03
2018-01-23T01:18:56.617Z,24.17
2018-01-23T01:21:24.094Z,28.10
2018-01-23T01:23:51.581Z,25.63
2018-01-23T01:26:19.043Z,26.53
2018-01-23T01:28:46.524Z,27.63
2018-01-23T01:31:13.970Z,30.53
2018-01-23T01:33:41.427Z,27.33
2018-01-23T01:36:08.907Z,29.40
2018-01-23T01:38:36.373Z,35.00
2018-01-23T01:41:03.863Z,29.43
2018-01-23T01:43:31.388Z,33.03
2018-01-23T01:45:58.843Z,31.27
2018-01-23T01:48:26.315Z,31.90
2018-01-23T01:50:53.786Z,29.57
2018-01-23T01:53:21.291Z,30.37
2018-01-23T01:55:48.778Z,30.93
2018-01-23T01:58:16.338Z,31.07
2018-01-23T02:00:48.756Z,26.60
2018-01-23T02:03:17.527Z,29.27
2018-01-23T02:05:44.973Z,25.73
2018-01-23T02:08:13.167Z,28.40
2018-01-23T02:10:40.716Z,29.90
2018-01-23T02:13:08.463Z,31.47
2018-01-23T02:15:35.970Z,28.60
2018-01-23T02:18:03.475Z,31.30
2018-01-23T02:20:30.957Z,29.97
2018-01-23T02:22:58.738Z,28.80
2018-01-23T02:25:27.015Z,29.00
2018-01-23T02:27:54.595Z,31.93
2018-01-23T02:30:22.957Z,28.30
2018-01-23T02:32:50.434Z,31.37
2018-01-23T02:35:17.929Z,34.40
2018-01-23T02:37:45.420Z,30.20
2018-01-23T02:40:12.900Z,33.23
2018-01-23T02:42:40.404Z,32.37
2018-01-23T02:45:07.879Z,30.07
2018-01-23T02:47:35.419Z,32.23
2018-01-23T02:50:02.950Z,35.60
2018-01-23T02:52:30.450Z,34.47
2018-01-23T02:54:57.927Z,31.73
2018-01-23T02:57:25.467Z,35.87
2018-01-23T02:59:52.976Z,32.60
2018-01-23T03:02:20.495Z,31.93
2018-01-23T03:04:47.977Z,30.60
2018-01-23T03:07:15.513Z,31.47
2018-01-23T03:09:42.978Z,25.60
2018-01-23T03:12:10.470Z,25.93
2018-01-23T03:14:37.950Z,25.07
2018-01-23T03:17:05.408Z,23.70
2018-01-23T03:19:32.863Z,27.00
2018-01-23T03:22:00.363Z,22.13
2018-01-23T03:24:27.817Z,22.20
2018-01-23T03:26:56.229Z,22.07
2018-01-23T03:29:23.680Z,21.53
2018-01-23T03:31:51.200Z,23.87
2018-01-23T03:34:18.658Z,22.10
2018-01-23T03:36:46.115Z,26.20
2018-01-23T03:39:13.583Z,25.40
2018-01-23T03:41:41.074Z,26.60
2018-01-23T03:44:08.538Z,26.37
2018-01-23T03:46:36.021Z,23.23
2018-01-23T03:49:03.578Z,20.77
2018-01-23T03:51:31.042Z,21.87
2018-01-23T03:53:58.518Z,24.83
2018-01-23T03:56:26.022Z,24.83
2018-01-23T03:58:53.505Z,27.83
2018-01-23T04:01:21.071Z,23.97
2018-01-23T04:03:48.560Z,20.93
2018-01-23T04:06:16.019Z,23.63
2018-01-23T04:08:44.293Z,24.03
2018-01-23T04:11:11.851Z,27.00
2018-01-23T04:13:39.296Z,27.70
2018-01-23T04:16:06.778Z,23.13
2018-01-23T04:18:34.234Z,27.57
2018-01-23T04:21:01.709Z,25.23
2018-01-23T04:23:29.206Z,23.63
2018-01-23T04:25:56.672Z,24.03
2018-01-23T04:28:24.127Z,22.73
2018-01-23T04:30:51.573Z,26.13
2018-01-23T04:33:19.035Z,29.30
2018-01-23T04:35:46.551Z,28.90
2018-01-23T04:38:14.009Z,24.47
2018-01-23T04:40:41.538Z,21.00
2018-01-23T04:43:09.003Z,25.47
2018-01-23T04:45:36.481Z,21.37
2018-01-23T04:48:03.975Z,21.73
2018-01-23T04:50:31.437Z,22.30
2018-01-23T04:52:58.915Z,24.90
2018-01-23T04:55:26.409Z,21.33
2018-01-23T04:57:53.870Z,24.23
2018-01-23T05:00:21.350Z,27.17
2018-01-23T05:02:48.828Z,20.00
2018-01-23T05:05:16.266Z,24.67
2018-01-23T05:07:43.717Z,21.67
2018-01-23T05:10:11.203Z,27.60
2018-01-23T05:12:38.669Z,27.00
2018-01-23T05:15:06.197Z,25.33
2018-01-23T05:17:33.712Z,23.07
2018-01-23T05:20:01.803Z,23.53
2018-01-23T05:22:29.315Z,19.27
2018-01-23T05:24:56.811Z,23.57
2018-01-23T05:27:24.340Z,19.63
2018-01-23T05:29:51.859Z,17.87
2018-01-23T05:32:19.473Z,21.83
2018-01-23T05:34:47.032Z,20.93
2018-01-23T05:37:14.557Z,19.60
2018-01-23T05:39:42.080Z,22.33
2018-01-23T05:42:09.585Z,18.63
2018-01-23T05:44:37.078Z,16.30
2018-01-23T05:47:04.585Z,18.50
2018-01-23T05:49:32.070Z,14.97
2018-01-23T05:51:59.589Z,18.77
2018-01-23T05:54:27.049Z,15.87
2018-01-23T05:56:54.495Z,18.27
2018-01-23T05:59:22.043Z,17.13
2018-01-23T06:01:49.517Z,15.00
2018-01-23T06:04:17.028Z,17.20
2018-01-23T06:06:44.506Z,18.13
2018-01-23T06:09:11.979Z,17.90
2018-01-23T06:11:39.455Z,23.60
2018-01-23T06:14:07.089Z,17.37
2018-01-23T06:16:34.547Z,21.93
2018-01-23T06:19:02.041Z,14.53
2018-01-23T06:21:29.553Z,19.20
2018-01-23T06:23:57.023Z,16.83
2018-01-23T06:26:24.500Z,17.37
2018-01-23T06:28:51.949Z,15.83
2018-01-23T06:31:19.410Z,17.23
2018-01-23T06:33:47.385Z,14.97
2018-01-23T06:36:14.885Z,14.40
2018-01-23T06:38:42.495Z,19.60
2018-01-23T06:41:10.054Z,20.47
2018-01-23T06:43:37.510Z,20.40
2018-01-23T06:46:05.039Z,26.93
2018-01-23T06:48:32.624Z,18.43
2018-01-23T06:51:00.489Z,19.40
2018-01-23T06:53:28.016Z,24.43
2018-01-23T06:55:55.542Z,21.13
2018-01-23T06:58:23.120Z,18.03
2018-01-23T07:03:43.648Z,18.70
2018-01-23T07:06:11.178Z,19.60
2018-01-23T07:08:38.716Z,20.00
2018-01-23T07:11:06.346Z,20.87
2018-01-23T07:13:34.048Z,22.67
2018-01-23T07:16:01.621Z,20.97
2018-01-23T07:18:29.190Z,17.57
2018-01-23T07:20:56.677Z,18.13
2018-01-23T07:23:24.307Z,17.63
2018-01-23T07:25:51.842Z,21.10
2018-01-23T07:28:19.334Z,22.63
2018-01-23T07:30:46.888Z,18.90
2018-01-23T07:33:14.601Z,14.93
2018-01-23T07:35:42.237Z,16.20
2018-01-23T07:38:09.824Z,16.07
2018-01-23T07:40:37.515Z,15.63
2018-01-23T07:43:05.091Z,24.23
2018-01-23T07:45:32.674Z,17.00
2018-01-23T07:48:00.263Z,17.57
2018-01-23T07:50:27.836Z,19.23
2018-01-23T07:52:56.536Z,19.57
2018-01-23T07:55:24.160Z,14.73
2018-01-23T07:57:51.651Z,16.40
2018-01-23T08:00:19.173Z,20.70
2018-01-23T08:02:46.829Z,20.57
2018-01-23T08:05:14.339Z,18.70
2018-01-23T08:07:41.842Z,20.00
2018-01-23T08:10:09.381Z,23.37
2018-01-23T08:12:36.904Z,20.80
2018-01-23T08:15:04.560Z,19.70
2018-01-23T08:17:32.159Z,20.70
2018-01-23T08:19:59.764Z,23.07
2018-01-23T08:22:28.245Z,17.43
2018-01-23T08:24:55.833Z,23.10
2018-01-23T08:27:23.384Z,24.20
2018-01-23T08:29:50.943Z,20.90
2018-01-23T08:32:18.469Z,20.37
2018-01-23T08:34:45.997Z,24.43
2018-01-23T08:37:13.500Z,25.57
2018-01-23T08:39:41.063Z,23.77
2018-01-23T08:42:08.535Z,22.80
2018-01-23T08:44:36.043Z,22.30
2018-01-23T08:47:03.587Z,23.53
2018-01-23T08:49:32.049Z,24.67
2018-01-23T08:51:59.595Z,29.03
2018-01-23T08:54:27.313Z,25.37
2018-01-23T08:56:54.901Z,21.90
2018-01-23T08:59:22.423Z,22.83
2018-01-23T09:01:49.919Z,25.20
2018-01-23T09:04:17.455Z,23.90
2018-01-23T09:06:44.921Z,24.07
2018-01-23T09:09:12.506Z,23.00
2018-01-23T09:11:40.050Z,25.77
2018-01-23T09:14:07.653Z,20.57
2018-01-23T09:16:35.131Z,22.83
2018-01-23T09:19:02.700Z,27.90
2018-01-23T09:21:30.228Z,26.53
2018-01-23T09:23:57.762Z,18.70
2018-01-23T09:26:25.272Z,24.77
2018-01-23T09:28:52.773Z,24.77
2018-01-23T09:31:20.279Z,22.13
2018-01-23T09:33:50.022Z,18.03
2018-01-23T09:36:17.624Z,27.73
2018-01-23T09:38:45.261Z,22.93
2018-01-23T09:41:13.202Z,25.03
2018-01-23T09:43:40.712Z,28.97
2018-01-23T09:46:08.231Z,23.30
2018-01-23T09:48:35.768Z,24.60
2018-01-23T09:51:03.227Z,26.37
2018-01-23T09:53:30.745Z,19.33
2018-01-23T09:55:58.344Z,23.83
2018-01-23T09:58:25.882Z,23.57
2018-01-23T10:00:53.490Z,22.13
2018-01-23T10:03:21.031Z,21.17
2018-01-23T10:05:48.513Z,27.03
2018-01-23T10:08:16.071Z,23.17
2018-01-23T10:10:43.599Z,20.90
2018-01-23T10:13:11.114Z,26.40
2018-01-23T10:15:38.625Z,25.47
2018-01-23T10:18:06.123Z,26.17
2018-01-23T10:20:33.645Z,24.93
2018-01-23T10:23:01.141Z,19.63
2018-01-23T10:25:28.639Z,23.43
2018-01-23T10:27:56.142Z,26.17
2018-01-23T10:30:23.639Z,26.77
2018-01-23T10:32:51.183Z,23.63
2018-01-23T10:35:19.758Z,27.30
2018-01-23T10:37:47.233Z,23.73
2018-01-23T10:40:15.571Z,20.60
2018-01-23T10:42:43.103Z,26.60
2018-01-23T10:45:10.634Z,24.70
2018-01-23T10:47:38.284Z,27.23
2018-01-23T10:50:05.781Z,25.00
2018-01-23T10:52:33.889Z,20.97
2018-01-23T10:55:01.471Z,21.70
2018-01-23T10:57:29.066Z,22.73
2018-01-23T10:59:56.585Z,26.97
2018-01-23T11:02:24.106Z,28.73
2018-01-23T11:04:51.629Z,25.57
2018-01-23T11:07:19.178Z,19.83
2018-01-23T11:09:46.765Z,20.80
2018-01-23T11:12:14.394Z,24.30
2018-01-23T11:14:41.871Z,19.90
2018-01-23T11:17:09.324Z,18.80
2018-01-23T11:19:36.832Z,23.63
2018-01-23T11:22:04.424Z,22.57
2018-01-23T11:24:32.007Z,21.90
2018-01-23T11:26:59.560Z,18.67
2018-01-23T11:29:27.072Z,22.77
2018-01-23T11:31:54.633Z,21.47
2018-01-23T11:34:22.196Z,19.17
2018-01-23T11:36:49.734Z,17.33
2018-01-23T11:39:17.328Z,19.50
2018-01-23T11:41:44.882Z,19.87
2018-01-23T11:44:12.369Z,20.10
2018-01-23T11:46:39.951Z,17.83
2018-01-23T11:49:07.442Z,20.93
2018-01-23T11:51:35.016Z,18.57
2018-01-23T11:54:02.549Z,21.10
2018-01-23T11:56:30.196Z,20.83
2018-01-23T11:58:57.713Z,19.57
2018-01-23T12:01:25.198Z,17.57
2018-01-23T12:03:52.735Z,17.27
2018-01-23T12:06:20.299Z,23.30
2018-01-23T12:08:47.774Z,19.20
2018-01-23T12:11:15.566Z,19.20
2018-01-23T12:13:43.128Z,18.23
2018-01-23T12:16:10.662Z,16.60
2018-01-23T12:18:38.196Z,23.00
2018-01-23T12:21:05.779Z,20.87
2018-01-23T12:23:33.254Z,17.90
2018-01-23T12:26:00.705Z,17.83
2018-01-23T12:28:28.250Z,20.10
2018-01-23T12:30:56.581Z,18.47
2018-01-23T12:33:24.127Z,19.07
2018-01-23T12:35:51.758Z,17.47
2018-01-23T12:38:19.302Z,20.43
2018-01-23T12:40:46.885Z,17.00
2018-01-23T12:43:14.406Z,20.83
2018-01-23T12:45:42.005Z,23.10
2018-01-23T12:48:09.538Z,20.73
2018-01-23T12:50:37.911Z,17.47
2018-01-23T12:53:05.431Z,21.33
2018-01-23T12:55:33.034Z,23.27
2018-01-23T12:58:00.807Z,20.00
2018-01-23T13:00:28.372Z,19.57
2018-01-23T13:02:55.864Z,16.70
2018-01-23T13:05:23.323Z,18.30
2018-01-23T13:07:50.890Z,17.80
2018-01-23T13:10:18.440Z,17.53
2018-01-23T13:12:45.962Z,22.80
2018-01-23T13:15:13.522Z,21.53
2018-01-23T13:17:41.043Z,18.43
2018-01-23T13:20:08.661Z,21.63
2018-01-23T13:22:36.227Z,15.40
2018-01-23T13:25:03.855Z,16.87
2018-01-23T13:27:31.434Z,17.57
2018-01-23T13:29:58.972Z,17.23
2018-01-23T13:32:26.522Z,19.77
2018-01-23T13:34:54.006Z,17.17
2018-01-23T13:37:21.539Z,15.00
2018-01-23T13:39:49.809Z,18.27
2018-01-23T13:42:17.317Z,11.77
2018-01-23T13:44:44.799Z,13.80
2018-01-23T13:47:12.308Z,14.60
2018-01-23T13:49:39.871Z,14.77
2018-01-23T13:52:07.335Z,14.80
2018-01-23T13:54:34.977Z,14.47
2018-01-23T13:57:02.497Z,17.50
2018-01-23T13:59:29.997Z,15.50
2018-01-23T14:01:57.484Z,18.77
2018-01-23T14:04:25.014Z,13.43
2018-01-23T14:06:52.522Z,16.30
2018-01-23T14:09:21.064Z,15.90
2018-01-23T14:11:49.204Z,17.83
2018-01-23T14:14:16.869Z,13.53
2018-01-23T14:16:44.588Z,18.37
2018-01-23T14:19:12.120Z,13.50
2018-01-23T14:21:39.613Z,15.80
2018-01-23T14:24:07.153Z,14.83
2018-01-23T14:26:34.643Z,13.63
2018-01-23T14:29:02.202Z,16.20
2018-01-23T14:31:29.731Z,13.37
2018-01-23T14:33:57.247Z,13.20
2018-01-23T14:36:24.842Z,14.63
2018-01-23T14:38:52.338Z,14.97
2018-01-23T14:41:19.863Z,14.97
2018-01-23T14:43:47.347Z,15.27
2018-01-23T14:46:14.957Z,16.20
2018-01-23T14:48:42.553Z,17.07
2018-01-23T14:51:10.160Z,13.10
2018-01-23T14:53:37.757Z,15.07
2018-01-23T14:56:05.250Z,12.83
2018-01-23T14:58:32.806Z,15.03
2018-01-23T15:01:00.307Z,14.63
2018-01-23T15:03:27.864Z,17.63
2018-01-23T15:05:55.395Z,15.00
2018-01-23T15:08:22.983Z,16.90
2018-01-23T15:10:52.032Z,13.93
2018-01-23T15:13:19.529Z,13.33
2018-01-23T15:15:47.146Z,13.17
2018-01-23T15:18:14.633Z,11.10
2018-01-23T15:20:42.174Z,13.20
2018-01-23T15:23:09.673Z,14.33
2018-01-23T15:25:37.221Z,14.60
2018-01-23T15:28:04.738Z,13.43
2018-01-23T15:30:32.348Z,14.07
2018-01-23T15:32:59.942Z,13.53
2018-01-23T15:35:27.466Z,12.83
2018-01-23T15:37:54.924Z,12.10
2018-01-23T15:40:22.686Z,15.70
2018-01-23T15:42:50.290Z,17.07
2018-01-23T15:45:17.861Z,13.70
2018-01-23T15:47:45.430Z,11.93
2018-01-23T15:50:12.996Z,12.87
2018-01-23T15:52:40.494Z,13.77
2018-01-23T15:55:08.158Z,10.93
2018-01-23T15:57:35.668Z,13.40
2018-01-23T16:00:03.498Z,14.73
2018-01-23T16:02:31.027Z,14.50
2018-01-23T16:04:58.598Z,15.10
2018-01-23T16:07:26.962Z,14.90
2018-01-23T16:09:54.523Z,12.63
2018-01-23T16:12:22.049Z,16.40
2018-01-23T16:14:49.528Z,14.57
2018-01-23T16:17:18.134Z,17.70
2018-01-23T16:19:45.744Z,16.13
2018-01-23T16:22:13.258Z,12.03
2018-01-23T16:24:40.785Z,15.60
2018-01-23T16:27:08.343Z,12.87
2018-01-23T16:29:35.805Z,14.13
2018-01-23T16:32:03.397Z,13.50
2018-01-23T16:34:30.915Z,12.10
2018-01-23T16:36:58.420Z,10.70
2018-01-23T16:39:25.976Z,9.27
2018-01-23T16:41:53.478Z,12.20
2018-01-23T16:44:21.023Z,14.33
2018-01-23T16:46:48.550Z,11.37
2018-01-23T16:49:16.118Z,10.53
2018-01-23T16:51:43.583Z,10.03
2018-01-23T16:54:11.066Z,9.37
2018-01-23T16:56:38.667Z,11.60
2018-01-23T16:59:06.273Z,10.17
2018-01-23T17:01:33.890Z,9.90
2018-01-23T17:04:01.476Z,8.83
2018-01-23T17:06:29.016Z,10.43
2018-01-23T17:08:56.548Z,12.50
2018-01-23T17:11:24.069Z,11.93
2018-01-23T17:13:51.563Z,11.93
2018-01-23T17:16:19.083Z,11.97
2018-01-23T17:18:46.644Z,9.90
2018-01-23T17:21:14.177Z,10.90
2018-01-23T17:23:41.878Z,11.77
2018-01-23T17:26:09.381Z,10.73
2018-01-23T17:28:36.954Z,13.27
2018-01-23T17:31:04.644Z,13.83
2018-01-23T17:33:32.212Z,11.20
2018-01-23T17:35:59.797Z,15.93
2018-01-23T17:38:28.064Z,13.10
2018-01-23T17:40:56.247Z,12.03
2018-01-23T17:43:24.009Z,11.47
2018-01-23T17:45:52.317Z,11.47
2018-01-23T17:48:19.844Z,11.07
2018-01-23T17:50:47.584Z,9.90
2018-01-23T17:53:15.870Z,9.90
2018-01-23T17:55:44.590Z,12.97
2018-01-23T17:58:12.706Z,11.43
2018-01-23T18:00:42.006Z,11.10
2018-01-23T18:03:09.641Z,13.20
2018-01-23T18:05:37.879Z,11.33
2018-01-23T18:08:05.635Z,11.70
2018-01-23T18:10:33.728Z,10.07
2018-01-23T18:13:01.308Z,13.13
2018-01-23T18:15:28.845Z,14.53
2018-01-23T18:17:56.457Z,11.70
2018-01-23T18:20:23.983Z,12.07
2018-01-23T18:22:51.536Z,10.37
2018-01-23T18:25:19.068Z,10.07
2018-01-23T18:27:46.619Z,13.27
2018-01-23T18:30:14.223Z,12.33
2018-01-23T18:32:41.890Z,9.87
2018-01-23T18:35:09.357Z,11.30
2018-01-23T18:37:36.907Z,11.13
2018-01-23T18:40:04.446Z,10.63
2018-01-23T18:42:32.099Z,10.27
2018-01-23T18:44:59.734Z,15.17
2018-01-23T18:47:27.436Z,10.90
2018-01-23T18:49:54.998Z,11.70
2018-01-23T18:52:22.623Z,10.97
2018-01-23T18:54:50.163Z,10.57
2018-01-23T18:57:17.690Z,10.07
2018-01-23T18:59:45.300Z,10.27
2018-01-23T19:02:12.870Z,11.60
2018-01-23T19:04:40.524Z,10.93
2018-01-23T19:07:08.061Z,11.07
2018-01-23T19:09:35.649Z,9.90
2018-01-23T19:12:03.207Z,13.03
2018-01-23T19:14:30.824Z,14.43
2018-01-23T19:16:58.304Z,11.17
2018-01-23T19:19:25.934Z,10.50
2018-01-23T19:21:53.455Z,12.60
2018-01-23T19:24:21.003Z,9.47
2018-01-23T19:26:48.502Z,11.90
2018-01-23T19:29:16.015Z,12.60
2018-01-23T19:31:43.550Z,11.80
2018-01-23T19:34:11.177Z,11.17
2018-01-23T19:36:38.706Z,9.73
2018-01-23T19:39:06.361Z,11.47
2018-01-23T19:41:34.037Z,11.50
2018-01-23T19:44:01.801Z,13.90
2018-01-23T19:46:29.370Z,9.93
2018-01-23T19:48:57.787Z,15.47
2018-01-23T19:51:25.385Z,13.93
2018-01-23T19:53:52.927Z,12.83
2018-01-23T19:56:20.484Z,10.00
2018-01-23T19:58:51.056Z,11.67
2018-01-23T20:01:18.824Z,13.73
2018-01-23T20:03:46.328Z,8.57
2018-01-23T20:06:14.057Z,16.70
2018-01-23T20:08:41.611Z,11.83
2018-01-23T20:11:09.240Z,14.10
2018-01-23T20:13:36.769Z,10.77
2018-01-23T20:16:04.301Z,13.37
2018-01-23T20:18:33.021Z,16.50
2018-01-23T20:21:00.647Z,13.40
2018-01-23T20:23:28.223Z,12.67
2018-01-23T20:25:55.767Z,12.57
2018-01-23T20:28:23.351Z,10.97
2018-01-23T20:30:50.896Z,11.57
2018-01-23T20:33:18.400Z,11.60
2018-01-23T20:35:46.726Z,11.70
2018-01-23T20:38:14.391Z,13.17
2018-01-23T20:40:42.028Z,11.60
2018-01-23T20:43:09.615Z,11.33
2018-01-23T20:45:37.269Z,14.33
2018-01-23T20:48:04.752Z,12.37
2018-01-23T20:50:32.304Z,12.23
2018-01-23T20:52:59.784Z,11.33
2018-01-23T20:55:27.680Z,14.07
2018-01-23T20:57:55.187Z,16.37
2018-01-23T21:00:22.934Z,12.13
2018-01-23T21:02:50.694Z,12.10
2018-01-23T21:05:18.210Z,13.13
2018-01-23T21:07:45.805Z,11.17
2018-01-23T21:10:13.286Z,13.20
2018-01-23T21:12:40.822Z,10.80
2018-01-23T21:15:08.419Z,14.63
2018-01-23T21:17:35.952Z,12.50
2018-01-23T21:20:03.512Z,13.67
2018-01-23T21:22:31.229Z,8.90
2018-01-23T21:24:58.934Z,12.70
2018-01-23T21:27:26.477Z,10.83
2018-01-23T21:29:53.962Z,9.00
2018-01-23T21:32:21.515Z,14.47
2018-01-23T21:34:49.083Z,12.40
2018-01-23T21:37:16.772Z,16.33
2018-01-23T21:39:44.327Z,13.50
2018-01-23T21:42:12.953Z,11.87
2018-01-23T21:44:40.582Z,13.57
2018-01-23T21:47:08.278Z,15.00
2018-01-23T21:49:35.834Z,11.73
2018-01-23T21:52:03.330Z,11.37
2018-01-23T21:54:30.856Z,12.20
2018-01-23T21:56:58.442Z,15.37
2018-01-23T21:59:25.948Z,12.60
2018-01-23T22:01:53.760Z,11.97
2018-01-23T22:04:21.247Z,12.30
2018-01-23T22:06:48.785Z,15.07
2018-01-23T22:09:16.323Z,11.57
2018-01-23T22:11:43.898Z,13.97
2018-01-23T22:14:12.359Z,11.77
2018-01-23T22:16:39.968Z,12.83
2018-01-23T22:19:07.773Z,12.90
2018-01-23T22:21:35.276Z,15.40
2018-01-23T22:24:02.885Z,12.63
2018-01-23T22:26:30.403Z,12.63
2018-01-23T22:28:57.880Z,15.50
2018-01-23T22:31:25.425Z,15.00
2018-01-23T22:33:52.890Z,15.33
2018-01-23T22:36:20.420Z,11.97
2018-01-23T22:38:48.037Z,13.53
2018-01-23T22:41:15.567Z,14.07
2018-01-23T22:43:43.112Z,13.17
2018-01-23T22:46:10.977Z,13.30
2018-01-23T22:48:38.703Z,13.10
2018-01-23T22:51:06.375Z,15.10
2018-01-23T22:53:33.905Z,11.83
2018-01-23T22:56:01.667Z,12.60
2018-01-23T22:58:29.202Z,13.33
2018-01-23T23:00:56.740Z,14.77
2018-01-23T23:03:24.268Z,11.50
2018-01-23T23:05:51.933Z,12.10
2018-01-23T23:08:19.481Z,11.63
2018-01-23T23:10:47.006Z,14.20
2018-01-23T23:13:14.585Z,11.93
2018-01-23T23:15:42.417Z,13.47
2018-01-23T23:18:09.897Z,11.57
2018-01-23T23:20:37.410Z,12.17
2018-01-23T23:23:04.911Z,14.57
2018-01-23T23:25:32.715Z,15.30
2018-01-23T23:28:00.202Z,11.10
2018-01-23T23:30:27.704Z,12.60
2018-01-23T23:32:55.222Z,11.47
2018-01-23T23:35:22.746Z,11.73
2018-01-23T23:37:50.496Z,12.43
2018-01-23T23:40:17.968Z,11.40
2018-01-23T23:42:45.440Z,13.63
2018-01-23T23:45:12.933Z,11.57
2018-01-23T23:47:40.402Z,10.57
2018-01-23T23:50:07.910Z,12.73
2018-01-23T23:52:35.403Z,11.77
2018-01-23T23:55:02.975Z,13.60
2018-01-23T23:57:30.424Z,13.03
2018-01-23T23:59:57.876Z,10.03
